Time;durP1;ratioP1;P1;durP2;ratioP2;P2;SDS_P1;SDS_P2;PMS_P1;PMS_P2;Temp;Humidity;BMP_temperature;BMP_pressure;BME280_temperature;BME280_humidity;BME280_pressure;Samples;Min_cycle;Max_cycle;Signal;HPM_P1;HPM_P2
2023/09/13 05:31:02;;;;;;;53.50;22.50;;;;;;;13.51;78.47;100328.97;1277069;23;20336;-91
2023/09/13 06:01:46;;;;;;;49.92;19.92;;;;;;;14.39;75.96;100317.59;5330716;23;20051;-91
2023/09/13 06:04:40;;;;;;;41.83;19.17;;;;;;;14.52;76.10;100325.00;4909285;29;20076;-91
2023/09/13 06:10:06;;;;;;;35.90;16.98;;;;;;;14.98;75.83;100268.72;4893233;29;20219;-93
2023/09/13 06:12:34;;;;;;;31.38;16.80;;;;;;;14.87;72.10;100262.69;4899094;29;20044;-91
2023/09/13 06:15:00;;;;;;;36.85;17.52;;;;;;;15.12;73.51;100310.69;4894494;29;20044;-91
2023/09/13 06:18:20;;;;;;;40.67;18.35;;;;;;;15.35;74.13;100322.44;4898802;29;20124;-90
2023/09/13 06:20:49;;;;;;;39.33;17.73;;;;;;;15.12;73.21;100290.63;4879753;29;20080;-89
2023/09/13 06:23:37;;;;;;;39.63;17.63;;;;;;;15.42;72.57;100319.22;4895317;29;20033;-90
2023/09/13 06:26:34;;;;;;;34.45;17.10;;;;;;;15.45;73.67;100324.06;4891789;29;20143;-88
2023/09/13 06:29:01;;;;;;;42.28;17.50;;;;;;;15.10;73.61;100252.38;4907999;29;20040;-90
2023/09/13 06:35:37;;;;;;;40.50;15.80;;;;;;;15.60;72.09;100322.81;4923936;29;20044;-89
2023/09/13 06:38:28;;;;;;;35.03;16.60;;;;;;;15.68;73.74;100294.47;4908376;29;20047;-89
2023/09/13 06:41:21;;;;;;;37.65;13.70;;;;;;;16.04;70.35;100327.25;4922934;29;20056;-90
2023/09/13 06:44:09;;;;;;;24.95;11.88;;;;;;;15.92;68.22;100307.78;4917425;29;20058;-86
2023/09/13 06:47:02;;;;;;;32.08;13.02;;;;;;;15.99;70.05;100277.75;4912772;29;20072;-88
2023/09/13 06:49:38;;;;;;;45.53;13.27;;;;;;;16.76;69.04;100324.91;4931002;29;20115;-87
2023/09/13 06:52:26;;;;;;;29.75;12.60;;;;;;;17.02;65.13;100328.38;4907637;29;20061;-88
2023/09/13 06:54:59;;;;;;;116.57;13.52;;;;;;;16.78;63.41;100290.28;4899585;29;20417;-87
2023/09/13 06:57:31;;;;;;;31.83;10.60;;;;;;;16.77;64.06;100291.44;4918991;29;20044;-88
2023/09/13 06:59:58;;;;;;;32.13;10.18;;;;;;;16.83;64.23;100300.34;4897885;29;20132;-88
2023/09/13 07:03:04;;;;;;;23.80;8.43;;;;;;;17.08;61.97;100318.75;4903889;29;20075;-87
2023/09/13 07:05:30;;;;;;;24.27;9.02;;;;;;;17.24;62.44;100309.91;4892999;29;20040;-86
2023/09/13 07:07:56;;;;;;;20.10;9.27;;;;;;;17.37;62.63;100319.91;4908652;29;20071;-88
2023/09/13 07:10:24;;;;;;;18.27;8.35;;;;;;;17.50;61.10;100295.94;4911399;29;20300;-86
2023/09/13 07:13:14;;;;;;;19.77;8.60;;;;;;;17.53;59.60;100300.78;4926820;29;20043;-87
2023/09/13 07:16:05;;;;;;;17.50;7.72;;;;;;;17.82;59.93;100316.56;4904361;24;20053;-91
2023/09/13 07:18:32;;;;;;;18.90;7.38;;;;;;;17.74;60.32;100306.31;4852498;29;20055;-87
2023/09/13 07:21:01;;;;;;;24.90;7.15;;;;;;;17.92;58.25;100321.69;4882164;29;20052;-87
2023/09/13 07:23:28;;;;;;;17.48;6.90;;;;;;;17.98;55.51;100323.09;4886206;29;20516;-87
2023/09/13 07:26:15;;;;;;;19.85;8.13;;;;;;;17.90;58.36;100312.09;4887045;29;20036;-86
2023/09/13 07:28:42;;;;;;;45.15;8.20;;;;;;;17.88;57.32;100295.84;4898673;29;20045;-86
2023/09/13 07:31:10;;;;;;;27.23;7.50;;;;;;;18.30;57.83;100327.03;4877101;29;20044;-85
2023/09/13 07:33:47;;;;;;;16.88;8.07;;;;;;;18.69;57.66;100337.91;4900567;29;20063;-88
2023/09/13 07:36:23;;;;;;;14.88;6.97;;;;;;;18.62;56.32;100302.44;4876616;29;20429;-88
2023/09/13 07:39:42;;;;;;;14.80;6.85;;;;;;;18.96;56.08;100328.97;4880666;29;20422;-87
2023/09/13 07:42:08;;;;;;;11.20;6.38;;;;;;;18.85;53.22;100291.00;4890702;29;20047;-86
2023/09/13 07:44:34;;;;;;;18.52;6.07;;;;;;;18.87;51.47;100327.44;4874210;29;20074;-86
2023/09/13 07:50:45;;;;;;;10.85;5.97;;;;;;;18.85;53.04;100304.84;4806062;29;20050;-84
2023/09/13 07:53:12;;;;;;;21.77;6.20;;;;;;;18.97;51.63;100296.50;4819962;29;20046;-86
2023/09/13 07:55:50;;;;;;;35.75;6.55;;;;;;;18.76;52.66;100286.34;4816314;29;20047;-87
2023/09/13 08:02:20;;;;;;;8.60;5.45;;;;;;;19.54;50.74;100312.22;4818396;29;20148;-86
2023/09/13 08:04:49;;;;;;;11.15;6.32;;;;;;;19.65;51.34;100295.94;4793383;29;20589;-85
2023/09/13 08:07:15;;;;;;;8.05;5.30;;;;;;;19.32;49.00;100284.97;4793473;29;20054;-86
2023/09/13 08:09:44;;;;;;;11.23;5.70;;;;;;;19.52;49.65;100288.75;4815285;29;20043;-85
2023/09/13 08:12:15;;;;;;;11.10;5.50;;;;;;;19.40;48.77;100273.78;4815950;29;20404;-85
2023/09/13 08:14:41;;;;;;;9.18;6.07;;;;;;;19.24;49.27;100267.31;4807411;29;20080;-86
2023/09/13 08:17:10;;;;;;;7.80;5.40;;;;;;;19.50;49.36;100319.59;4798783;29;20050;-87
2023/09/13 08:19:36;;;;;;;8.10;5.70;;;;;;;19.05;50.21;100261.56;4786357;29;20871;-86
2023/09/13 08:22:04;;;;;;;19.73;6.93;;;;;;;19.15;50.26;100280.47;4812904;29;20058;-87
2023/09/13 08:24:36;;;;;;;20.38;6.65;;;;;;;19.05;48.97;100256.00;4818432;29;20038;-91
2023/09/13 08:27:02;;;;;;;13.43;6.55;;;;;;;19.55;51.42;100299.16;4851627;29;20049;-90
2023/09/13 08:29:29;;;;;;;;;;;;;;;19.60;46.18;100310.00;4885666;29;20032;-85
2023/09/13 08:31:55;;;;;;;26.58;6.35;;;;;;;19.26;47.43;100276.06;4901593;29;19928;-87
2023/09/13 08:34:24;;;;;;;12.10;6.03;;;;;;;19.43;48.22;100311.88;4876427;29;20053;-89
2023/09/13 08:36:58;;;;;;;23.23;6.65;;;;;;;18.96;50.24;100248.59;4885960;29;20077;-86
2023/09/13 08:39:24;;;;;;;9.57;6.57;;;;;;;19.28;50.78;100286.84;4876756;29;20048;-85
2023/09/13 08:41:54;;;;;;;;;;;;;;;19.55;50.96;100299.16;4863245;29;20033;-86
2023/09/13 08:44:23;;;;;;;10.02;6.18;;;;;;;19.66;51.45;100290.03;4890810;29;19950;-87
2023/09/13 08:47:42;;;;;;;9.95;5.38;;;;;;;19.65;47.10;100295.94;4885106;29;20041;-90
2023/09/13 08:50:34;;;;;;;16.70;5.57;;;;;;;19.64;49.44;100269.34;4900661;29;20145;-92
2023/09/13 08:53:03;;;;;;;13.10;6.13;;;;;;;19.76;47.49;100291.50;4903089;29;20332;-90
2023/09/13 08:55:57;;;;;;;8.00;5.13;;;;;;;19.68;47.97;100295.22;4874276;29;20052;-88
2023/09/13 08:58:49;;;;;;;16.92;7.60;;;;;;;19.40;46.92;100298.72;4884008;29;20041;-86
2023/09/13 09:01:21;;;;;;;15.18;6.40;;;;;;;19.22;48.78;100273.19;4859296;29;20056;-90
2023/09/13 09:03:51;;;;;;;11.90;5.63;;;;;;;19.01;47.25;100242.84;4863096;29;20053;-88
2023/09/13 09:06:45;;;;;;;11.55;6.38;;;;;;;19.40;49.64;100282.09;4903363;29;20068;-90
2023/09/13 09:09:17;;;;;;;10.23;5.93;;;;;;;19.60;48.25;100280.31;4903158;29;20077;-87
2023/09/13 09:12:11;;;;;;;51.50;8.32;;;;;;;19.69;47.72;100282.97;4893288;29;20049;-86
2023/09/13 09:14:44;;;;;;;21.08;6.70;;;;;;;19.81;48.21;100260.75;4848234;29;20040;-89
2023/09/13 09:17:14;;;;;;;10.75;5.95;;;;;;;19.86;46.80;100229.97;4881939;29;20057;-85
2023/09/13 09:19:46;;;;;;;32.47;5.93;;;;;;;20.29;45.11;100274.75;4864317;29;20054;-85
2023/09/13 09:22:16;;;;;;;19.05;5.88;;;;;;;20.10;45.12;100272.66;4882850;29;20089;-87
2023/09/13 09:24:50;;;;;;;9.48;5.72;;;;;;;20.26;47.41;100273.50;4862509;29;20054;-86
2023/09/13 09:27:16;;;;;;;18.52;5.80;;;;;;;20.23;45.67;100265.91;4886227;29;20053;-88
2023/09/13 09:29:45;;;;;;;11.65;5.78;;;;;;;19.98;44.90;100240.22;4890677;29;20049;-88
2023/09/13 09:32:38;;;;;;;12.52;7.03;;;;;;;20.13;45.32;100267.22;4889507;29;20049;-92
2023/09/13 09:35:05;;;;;;;13.93;6.25;;;;;;;20.05;45.53;100262.59;4871514;29;20136;-87
2023/09/13 09:38:22;;;;;;;9.55;6.00;;;;;;;20.25;44.86;100269.09;4873610;29;20077;-87
2023/09/13 09:40:57;;;;;;;10.10;6.32;;;;;;;20.48;47.02;100263.78;4873825;29;20057;-89
2023/09/13 09:43:57;;;;;;;12.20;5.35;;;;;;;20.44;43.81;100270.41;4879916;29;20033;-87
2023/09/13 09:46:23;;;;;;;20.05;5.85;;;;;;;20.27;43.78;100269.56;4839802;29;20145;-88
2023/09/13 09:48:53;;;;;;;11.95;5.47;;;;;;;20.10;44.20;100234.63;4838352;29;20064;-91
2023/09/13 09:51:21;;;;;;;17.65;6.35;;;;;;;20.11;46.24;100240.97;4828038;29;20098;-88
2023/09/13 09:54:28;;;;;;;11.63;6.07;;;;;;;20.06;45.18;100210.66;4884074;29;20104;-89
2023/09/13 09:57:24;;;;;;;11.80;5.88;;;;;;;20.65;46.59;100262.66;4855631;29;20057;-87
2023/09/13 09:59:51;;;;;;;20.65;5.65;;;;;;;20.93;42.01;100270.91;4862373;29;20486;-87
2023/09/13 10:02:48;;;;;;;9.45;5.63;;;;;;;20.98;43.38;100256.72;4883511;29;20046;-88
2023/09/13 10:09:44;;;;;;;12.82;5.50;;;;;;;20.53;42.32;100204.38;4838419;29;20057;-87
2023/09/13 10:12:20;;;;;;;10.38;6.50;;;;;;;20.94;42.39;100246.69;4834746;29;20074;-89
2023/09/13 10:14:54;;;;;;;21.92;6.38;;;;;;;20.91;43.87;100234.31;4817333;29;20045;-90
2023/09/13 10:17:55;;;;;;;17.27;5.63;;;;;;;21.32;45.13;100218.19;4841268;29;20050;-89
2023/09/13 11:03:58;;;;;;;34.20;6.13;;;;;;;21.44;41.93;100186.69;2106737;23;20035;-88
2023/09/13 11:06:57;;;;;;;12.27;5.28;;;;;;;21.95;42.88;100236.63;4889443;29;20068;-87
2023/09/13 11:10:15;;;;;;;18.33;5.80;;;;;;;22.04;41.00;100221.28;4876124;29;20052;-89
2023/09/13 11:16:32;;;;;;;11.07;5.07;;;;;;;22.57;41.42;100225.47;5153302;23;20066;-91
2023/09/13 11:19:04;;;;;;;5.93;4.63;;;;;;;22.42;39.17;100233.59;4951971;29;20052;-90
2023/09/13 11:25:52;;;;;;;8.57;5.22;;;;;;;22.58;38.62;100243.78;5040424;23;20052;-89
2023/09/13 11:29:18;;;;;;;10.02;5.13;;;;;;;22.10;38.85;100219.03;4881417;29;20052;-89
2023/09/13 11:38:03;;;;;;;12.98;4.93;;;;;;;22.32;39.22;100225.84;4945732;29;20087;-90
2023/09/13 11:40:32;;;;;;;8.75;4.43;;;;;;;22.22;41.84;100210.53;4902379;29;20035;-90
2023/09/13 11:42:59;;;;;;;8.27;4.85;;;;;;;22.49;41.99;100217.00;4913317;29;20075;-87
2023/09/13 11:45:50;;;;;;;28.23;5.70;;;;;;;22.59;40.09;100221.13;4905348;29;20043;-87
2023/09/13 11:51:59;;;;;;;191.15;12.40;;;;;;;22.84;40.80;100182.50;4959647;23;20074;-87
2023/09/13 11:54:56;;;;;;;33.10;5.72;;;;;;;23.06;39.42;100219.13;4919442;29;20433;-90
2023/09/13 11:57:57;;;;;;;12.35;5.38;;;;;;;23.17;40.52;100214.50;4913229;29;20080;-91
2023/09/13 12:00:25;;;;;;;22.80;5.15;;;;;;;23.24;39.83;100199.84;4935978;23;20067;-90
2023/09/13 12:05:55;;;;;;;11.20;5.22;;;;;;;23.27;37.82;100213.03;4515559;27;20052;-93
2023/09/13 12:08:30;;;;;;;12.18;5.22;;;;;;;23.18;38.50;100202.19;4930731;29;20020;-90
2023/09/13 12:11:02;;;;;;;9.18;4.82;;;;;;;23.19;40.01;100190.63;4914362;29;20064;-90
2023/09/13 12:14:01;;;;;;;9.68;4.25;;;;;;;23.07;37.73;100151.78;4919084;29;20048;-87
2023/09/13 12:16:31;;;;;;;10.98;4.80;;;;;;;23.36;36.46;100211.59;4900877;29;20044;-89
2023/09/13 12:18:58;;;;;;;14.70;4.65;;;;;;;23.43;38.47;100188.53;4901256;29;20043;-90
2023/09/13 12:21:45;;;;;;;41.38;5.10;;;;;;;23.43;37.28;100167.03;4915420;29;20028;-89
2023/09/13 12:25:11;;;;;;;5.65;4.20;;;;;;;23.66;38.36;100199.59;4902758;29;20471;-90
2023/09/13 12:27:40;;;;;;;26.63;5.15;;;;;;;23.76;37.52;100193.38;4933386;29;20064;-92
2023/09/13 12:30:12;;;;;;;16.83;4.85;;;;;;;23.30;35.47;100167.66;4896814;29;20108;-85
2023/09/13 12:32:48;;;;;;;6.72;4.03;;;;;;;23.13;37.78;100183.75;4879047;29;20187;-87
2023/09/13 12:36:24;;;;;;;9.02;4.43;;;;;;;22.82;38.70;100186.88;4897955;29;20051;-88
2023/09/13 12:38:59;;;;;;;8.23;3.88;;;;;;;22.38;39.53;100126.81;4874643;29;20052;-90
2023/09/13 12:41:38;;;;;;;9.82;4.88;;;;;;;22.87;39.58;100194.88;4898339;29;20051;-89
2023/09/13 12:44:41;;;;;;;5.22;4.47;;;;;;;22.64;39.72;100136.41;4931510;29;20040;-88
2023/09/13 12:47:27;;;;;;;6.30;4.22;;;;;;;22.93;38.04;100149.63;4806153;29;20264;-87
2023/09/13 12:49:54;;;;;;;10.75;4.80;;;;;;;23.42;38.53;100184.97;4834645;29;20568;-91
2023/09/13 12:52:22;;;;;;;13.77;4.60;;;;;;;23.52;37.12;100185.47;4823009;29;20065;-89
2023/09/13 12:54:50;;;;;;;10.80;4.47;;;;;;;23.46;38.02;100154.31;4844772;29;20046;-88
2023/09/13 12:57:47;;;;;;;9.77;4.68;;;;;;;23.48;37.54;100124.03;4817241;29;20061;-94
2023/09/13 13:01:04;;;;;;;4.65;3.80;;;;;;;23.91;37.00;100180.41;4788739;30;20051;-94
2023/09/13 13:08:14;;;;;;;20.98;6.63;;;;;;;23.68;37.48;100184.13;4804569;29;20062;-92
2023/09/13 13:11:52;;;;;;;41.60;11.63;;;;;;;23.51;37.95;100179.09;4808170;29;20047;-87
2023/09/13 13:14:38;;;;;;;25.27;7.20;;;;;;;23.04;38.18;100152.53;4799308;29;20059;-92
2023/09/13 13:17:08;;;;;;;7.40;5.57;;;;;;;22.82;38.90;100173.72;4796469;30;20051;-90
2023/09/13 13:19:36;;;;;;;5.93;4.43;;;;;;;22.49;38.93;100138.97;4814755;29;20100;-87
2023/09/13 13:22:05;;;;;;;10.85;4.40;;;;;;;22.28;38.24;100122.72;4817639;29;20078;-88
2023/09/13 13:24:36;;;;;;;14.15;6.38;;;;;;;22.97;39.78;100167.19;4829062;29;20080;-90
2023/09/13 13:27:09;;;;;;;14.73;5.93;;;;;;;22.97;37.77;100177.53;4877298;29;20113;-91
2023/09/13 13:29:39;;;;;;;7.25;5.05;;;;;;;23.00;39.37;100174.00;4875687;29;20073;-89
2023/09/13 13:32:09;;;;;;;16.60;5.75;;;;;;;22.79;39.04;100129.88;4912756;23;20063;-94
2023/09/13 13:34:38;;;;;;;13.68;5.70;;;;;;;23.11;38.76;100158.25;4885647;29;20080;-88
2023/09/13 13:40:48;;;;;;;9.15;5.40;;;;;;;22.81;39.81;100157.34;4924051;29;20043;-92
2023/09/13 13:43:15;;;;;;;11.80;5.40;;;;;;;22.80;38.60;100123.09;4902399;29;20048;-91
2023/09/13 13:45:48;;;;;;;12.32;5.10;;;;;;;22.74;39.41;100124.59;4879734;29;20116;-92
2023/09/13 13:49:05;;;;;;;24.15;6.30;;;;;;;22.64;39.75;100167.06;4880492;29;20040;-87
2023/09/13 13:52:03;;;;;;;23.35;8.75;;;;;;;22.10;40.99;100129.13;4917070;29;20107;-90
2023/09/13 13:54:33;;;;;;;29.77;13.60;;;;;;;21.68;41.04;100111.25;4885018;29;20104;-93
2023/09/13 13:57:01;;;;;;;14.55;9.80;;;;;;;21.93;40.94;100152.69;4931677;29;20047;-93
2023/09/13 13:59:29;;;;;;;17.75;7.47;;;;;;;22.08;41.36;100157.31;4885105;29;20053;-87
2023/09/13 14:01:59;;;;;;;22.17;8.50;;;;;;;21.91;42.17;100133.53;4936356;29;20085;-90
2023/09/13 14:04:37;;;;;;;47.17;12.40;;;;;;;21.74;42.76;100134.03;4895301;29;20043;-89
2023/09/13 14:07:04;;;;;;;27.05;12.13;;;;;;;21.50;43.21;100152.66;4934574;29;20054;-90
2023/09/13 14:09:32;;;;;;;21.88;9.95;;;;;;;21.44;43.33;100126.28;4930254;29;20040;-86
2023/09/13 14:11:58;;;;;;;24.35;10.15;;;;;;;21.20;43.78;100149.59;4912224;29;20447;-88
2023/09/13 14:14:36;;;;;;;62.80;12.88;;;;;;;20.72;44.33;100123.91;4913744;29;20047;-92
2023/09/13 14:17:08;;;;;;;47.05;12.68;;;;;;;20.47;45.83;100106.63;4927310;29;20047;-94
2023/09/13 14:19:40;;;;;;;38.92;10.57;;;;;;;20.47;45.44;100139.16;4922462;29;20103;-93
2023/09/13 14:22:10;;;;;;;21.50;7.45;;;;;;;20.42;45.43;100151.31;4905024;29;20045;-86
2023/09/13 14:24:39;;;;;;;31.02;9.00;;;;;;;20.23;46.44;100160.41;4911682;29;20076;-88
2023/09/13 14:27:13;;;;;;;24.30;9.80;;;;;;;20.09;47.52;100149.69;4886287;29;20060;-87
2023/09/13 14:29:54;;;;;;;20.85;9.10;;;;;;;20.02;48.48;100154.25;4913649;29;20048;-90
2023/09/13 14:32:21;;;;;;;23.75;10.73;;;;;;;19.83;48.04;100129.97;4914229;29;20060;-91
2023/09/13 14:35:37;;;;;;;34.08;10.90;;;;;;;19.81;48.04;100146.97;4921088;29;20121;-91
2023/09/13 14:38:04;;;;;;;37.08;9.68;;;;;;;19.77;48.19;100151.63;4935429;29;20111;-94
2023/09/13 14:40:47;;;;;;;34.80;10.60;;;;;;;19.69;50.54;100156.16;4888339;29;20100;-87
2023/09/13 14:43:15;;;;;;;34.75;10.35;;;;;;;19.51;50.00;100140.16;4916317;29;20035;-87
2023/09/13 14:45:42;;;;;;;37.85;11.60;;;;;;;19.18;50.90;100105.16;4917467;29;20044;-85
2023/09/13 14:51:12;;;;;;;38.30;11.57;;;;;;;19.13;50.06;100131.16;5050718;23;20056;-85
2023/09/13 14:54:03;;;;;;;26.35;10.20;;;;;;;19.16;49.62;100149.03;4941451;29;20576;-91
2023/09/13 14:56:39;;;;;;;27.60;9.80;;;;;;;19.02;50.17;100135.56;4906325;29;20040;-92
2023/09/13 15:00:00;;;;;;;40.35;9.63;;;;;;;18.94;50.66;100145.63;4920440;29;20059;-89
2023/09/13 15:02:59;;;;;;;29.83;8.45;;;;;;;18.59;49.57;100112.06;4881607;29;20045;-92
2023/09/13 15:05:47;;;;;;;26.38;7.93;;;;;;;18.63;49.79;100115.75;4953596;23;20123;-85
2023/09/13 15:08:19;;;;;;;27.42;8.55;;;;;;;18.53;50.28;100117.00;4906882;29;20049;-91
2023/09/13 15:10:50;;;;;;;28.42;7.85;;;;;;;18.55;50.72;100117.47;4917588;29;20080;-92
2023/09/13 15:13:21;;;;;;;34.67;8.70;;;;;;;18.49;50.79;100118.88;4878262;29;20104;-92
2023/09/13 15:16:07;;;;;;;37.03;7.88;;;;;;;18.57;51.04;100144.81;4875735;29;20076;-91
2023/09/13 15:19:12;;;;;;;23.58;8.68;;;;;;;18.49;51.06;100146.56;4886952;29;20048;-85
2023/09/13 15:21:39;;;;;;;18.38;8.63;;;;;;;18.36;49.78;100138.59;4868745;29;20073;-91
2023/09/13 15:25:07;;;;;;;24.05;11.25;;;;;;;18.33;50.20;100153.94;4909614;23;20041;-92
2023/09/13 15:27:35;;;;;;;29.60;11.88;;;;;;;18.29;51.54;100139.16;4906513;24;20045;-91
2023/09/13 15:30:06;;;;;;;37.55;17.88;;;;;;;18.05;50.74;100099.25;4904610;29;20084;-93
2023/09/13 15:33:32;;;;;;;51.17;19.13;;;;;;;18.19;51.78;100128.53;4913133;23;20052;-91
2023/09/13 15:36:28;;;;;;;60.85;19.25;;;;;;;18.29;52.27;100150.25;4887394;29;20289;-88
2023/09/13 15:39:09;;;;;;;47.85;14.77;;;;;;;17.98;51.54;100112.00;4897933;29;20726;-89
2023/09/13 15:41:53;;;;;;;45.75;14.65;;;;;;;17.96;51.67;100119.88;4888787;29;20368;-85
2023/09/13 15:44:25;;;;;;;48.63;18.08;;;;;;;18.08;52.17;100142.84;4906617;29;20044;-85
2023/09/13 15:46:54;;;;;;;74.30;23.95;;;;;;;17.86;51.58;100117.53;4891618;29;20067;-88
2023/09/13 15:49:31;;;;;;;72.32;21.95;;;;;;;17.65;53.37;100101.78;4897275;29;20448;-90
2023/09/13 15:52:01;;;;;;;62.97;24.77;;;;;;;17.45;53.08;100089.63;4907702;29;20047;-86
2023/09/13 15:54:33;;;;;;;81.78;22.92;;;;;;;17.67;54.44;100134.63;4888760;29;20055;-86
2023/09/13 15:57:03;;;;;;;79.00;24.13;;;;;;;17.68;54.89;100150.03;4907236;29;20108;-85
2023/09/13 15:59:32;;;;;;;70.82;22.83;;;;;;;17.32;55.08;100121.13;4883245;29;20045;-86
2023/09/13 16:02:13;;;;;;;78.82;24.25;;;;;;;17.12;56.17;100109.75;4885749;29;20395;-86
2023/09/13 16:04:40;;;;;;;81.40;26.50;;;;;;;17.05;56.92;100114.16;4879166;29;20915;-88
2023/09/13 16:07:07;;;;;;;;;;;;;;;17.23;57.15;100167.38;4883809;29;20096;-87
2023/09/13 16:09:33;;;;;;;93.32;26.58;;;;;;;17.02;58.19;100151.59;4894753;29;19927;-88
2023/09/13 16:12:02;;;;;;;88.27;26.90;;;;;;;16.96;59.22;100161.22;4912188;29;20041;-86
2023/09/13 16:14:44;;;;;;;95.50;33.10;;;;;;;16.73;59.64;100143.31;4913070;29;20067;-84
2023/09/13 16:17:10;;;;;;;112.43;35.78;;;;;;;16.63;60.09;100138.97;4883244;29;20547;-87
2023/09/13 16:20:36;;;;;;;101.82;36.22;;;;;;;16.73;60.61;100166.19;4910328;29;20033;-89
2023/09/13 16:23:53;;;;;;;108.80;33.00;;;;;;;16.66;57.79;100161.19;4883775;29;20100;-92
2023/09/13 20:06:19;;;;;;;12.05;7.47;;;;;;;14.60;64.26;100153.59;4964902;23;20032;-94
